createdAt,value
2019-05-01T00:05:15.460Z,10.25
2019-05-01T00:10:19.488Z,10.27
2019-05-01T00:15:23.627Z,10.36
2019-05-01T00:20:25.707Z,10.39
2019-05-01T00:25:28.094Z,10.41
2019-05-01T00:30:31.360Z,10.38
2019-05-01T00:35:33.702Z,10.39
2019-05-01T00:40:35.804Z,10.37
2019-05-01T00:45:38.279Z,10.48
2019-05-01T00:50:40.392Z,10.49
2019-05-01T00:56:08.318Z,10.53
2019-05-01T01:01:24.944Z,10.48
2019-05-01T01:06:27.047Z,10.58
2019-05-01T01:11:29.112Z,10.55
2019-05-01T01:16:31.654Z,10.61
2019-05-01T01:21:34.890Z,10.66
2019-05-01T01:26:37.119Z,10.66
2019-05-01T01:31:39.362Z,10.73
2019-05-01T01:36:41.655Z,10.71
2019-05-01T01:41:44.820Z,10.68
2019-05-01T01:46:48.901Z,10.82
2019-05-01T01:51:51.235Z,10.77
2019-05-01T01:56:53.399Z,10.85
2019-05-01T02:02:08.259Z,11.01
2019-05-01T02:07:11.452Z,10.97
2019-05-01T02:12:14.145Z,10.92
2019-05-01T02:17:17.455Z,10.79
2019-05-01T02:22:20.071Z,10.95
2019-05-01T02:27:27.987Z,10.98
2019-05-01T02:32:31.205Z,10.91
2019-05-01T02:37:33.819Z,10.94
2019-05-01T02:42:39.064Z,10.84
2019-05-01T02:47:43.264Z,10.92
2019-05-01T02:52:45.699Z,10.96
2019-05-01T02:57:48.171Z,10.90
2019-05-01T03:02:50.572Z,10.86
2019-05-01T03:07:52.948Z,10.83
2019-05-01T03:12:56.204Z,10.77
2019-05-01T03:18:19.234Z,10.78
2019-05-01T03:23:27.638Z,10.79
2019-05-01T03:28:30.517Z,10.80
2019-05-01T03:33:33.286Z,10.67
2019-05-01T03:38:36.067Z,10.59
2019-05-01T03:43:39.151Z,10.65
2019-05-01T03:48:42.455Z,10.53
2019-05-01T03:53:44.926Z,10.49
2019-05-01T03:58:48.378Z,10.54
2019-05-01T04:03:53.643Z,10.51
2019-05-01T04:08:56.715Z,10.48
2019-05-01T04:13:59.937Z,10.52
2019-05-01T04:19:03.410Z,10.59
2019-05-01T04:24:05.800Z,10.48
2019-05-01T04:29:30.837Z,10.58
2019-05-01T04:34:59.167Z,10.63
2019-05-01T04:40:01.262Z,10.74
2019-05-01T04:45:03.484Z,10.63
2019-05-01T04:50:05.672Z,10.69
2019-05-01T04:55:07.835Z,10.72
2019-05-01T05:00:10.812Z,10.60
2019-05-01T05:05:13.309Z,10.60
2019-05-01T05:10:15.773Z,10.69
2019-05-01T05:15:28.534Z,10.67
2019-05-01T05:20:31.021Z,10.68
2019-05-01T05:25:33.835Z,10.68
2019-05-01T05:30:42.830Z,10.68
2019-05-01T05:35:47.295Z,10.76
2019-05-01T05:40:50.819Z,10.78
2019-05-01T05:45:52.927Z,10.91
2019-05-01T05:51:10.817Z,10.92
2019-05-01T05:56:25.355Z,11.06
2019-05-01T06:01:45.731Z,11.23
2019-05-01T06:07:10.085Z,11.35
2019-05-01T06:12:29.516Z,12.02
2019-05-01T06:17:45.980Z,11.61
2019-05-01T06:23:10.302Z,11.55
2019-05-01T06:28:12.582Z,11.56
2019-05-01T06:33:14.938Z,11.49
2019-05-01T06:38:21.392Z,11.59
2019-05-01T06:43:52.584Z,11.62
2019-05-01T06:49:02.324Z,11.87
2019-05-01T06:54:11.517Z,11.84
2019-05-01T06:59:13.588Z,11.94
2019-05-01T07:04:15.835Z,12.27
2019-05-01T07:09:28.133Z,12.32
2019-05-01T07:14:28.328Z,12.35
2019-05-01T07:19:49.438Z,12.61
2019-05-01T07:24:52.255Z,12.50
2019-05-01T07:29:57.860Z,12.70
2019-05-01T07:35:02.022Z,12.56
2019-05-01T07:40:05.155Z,12.50
2019-05-01T07:45:28.337Z,12.08
2019-05-01T07:50:32.611Z,12.28
2019-05-01T07:55:37.818Z,12.36
2019-05-01T08:00:51.939Z,12.43
2019-05-01T08:05:53.955Z,12.38
2019-05-01T08:10:59.905Z,12.24
2019-05-01T08:16:01.996Z,12.31
2019-05-01T08:21:27.569Z,12.30
2019-05-01T08:26:30.987Z,12.36
2019-05-01T08:31:40.821Z,12.30
2019-05-01T08:36:47.291Z,12.31
2019-05-01T08:41:51.988Z,12.23
2019-05-01T08:47:09.546Z,12.72
2019-05-01T08:52:13.900Z,12.91
2019-05-01T08:57:15.929Z,13.08
2019-05-01T09:02:19.225Z,13.19
2019-05-01T09:07:24.009Z,13.77
2019-05-01T09:12:25.231Z,13.86
2019-05-01T09:17:27.667Z,13.79
2019-05-01T09:22:30.271Z,14.05
2019-05-01T09:27:48.362Z,13.90
2019-05-01T09:32:54.280Z,13.90
2019-05-01T09:37:54.643Z,13.84
2019-05-01T09:42:59.330Z,14.11
2019-05-01T09:48:02.460Z,14.06
2019-05-01T09:53:24.090Z,14.40
2019-05-01T09:58:26.883Z,14.09
2019-05-01T10:03:29.976Z,14.06
2019-05-01T10:08:34.849Z,13.90
2019-05-01T10:13:36.264Z,13.95
2019-05-01T10:18:39.608Z,14.22
2019-05-01T10:23:41.595Z,14.67
2019-05-01T10:29:10.455Z,14.64
2019-05-01T10:34:25.006Z,15.04
2019-05-01T10:39:30.110Z,15.17
2019-05-01T10:44:31.462Z,15.38
2019-05-01T10:49:33.590Z,15.15
2019-05-01T10:54:36.672Z,14.99
2019-05-01T10:59:38.884Z,15.09
2019-05-01T11:04:41.165Z,14.91
2019-05-01T11:09:43.314Z,14.96
2019-05-01T11:14:45.390Z,15.06
2019-05-01T11:19:47.489Z,15.21
2019-05-01T11:24:49.658Z,15.21
2019-05-01T11:29:51.896Z,15.40
2019-05-01T11:35:10.719Z,15.56
2019-05-01T11:40:35.159Z,15.92
2019-05-01T11:45:37.285Z,16.41
2019-05-01T11:50:39.366Z,16.55
2019-05-01T11:55:41.401Z,16.78
2019-05-01T12:00:45.127Z,16.60
2019-05-01T12:05:47.318Z,16.44
2019-05-01T12:10:49.325Z,16.78
2019-05-01T12:15:58.435Z,16.90
2019-05-01T12:21:00.520Z,17.10
2019-05-01T12:26:02.647Z,17.06
2019-05-01T12:31:04.821Z,17.31
2019-05-01T12:36:07.643Z,16.57
2019-05-01T12:41:23.631Z,16.59
2019-05-01T12:46:47.418Z,16.89
2019-05-01T12:51:52.151Z,16.78
2019-05-01T12:56:55.653Z,16.86
2019-05-01T13:01:57.976Z,17.37
2019-05-01T13:07:00.242Z,17.20
2019-05-01T13:12:02.425Z,17.56
2019-05-01T13:17:04.607Z,17.44
2019-05-01T13:22:06.813Z,17.61
2019-05-01T13:27:15.367Z,17.45
2019-05-01T13:32:45.832Z,17.89
2019-05-01T13:37:48.010Z,17.71
2019-05-01T13:42:50.995Z,17.98
2019-05-01T13:47:54.645Z,17.78
2019-05-01T13:52:56.994Z,17.90
2019-05-01T13:57:59.107Z,17.83
2019-05-01T14:03:01.278Z,17.89
2019-05-01T14:08:03.675Z,17.98
2019-05-01T14:13:05.943Z,17.96
2019-05-01T14:18:08.122Z,18.07
2019-05-01T14:23:17.095Z,17.99
2019-05-01T14:28:19.427Z,18.12
2019-05-01T14:33:21.555Z,18.37
2019-05-01T14:38:26.850Z,18.50
2019-05-01T14:43:29.264Z,18.42
2019-05-01T14:48:31.948Z,18.56
2019-05-01T14:53:34.017Z,18.66
2019-05-01T14:58:36.484Z,18.63
2019-05-01T15:03:38.571Z,18.84
2019-05-01T15:08:40.797Z,18.54
2019-05-01T15:13:59.187Z,18.75
2019-05-01T15:19:08.127Z,18.63
2019-05-01T15:24:10.328Z,18.65
2019-05-01T15:29:12.547Z,18.66
2019-05-01T15:34:14.816Z,18.57
2019-05-01T15:39:25.539Z,18.61
2019-05-01T15:44:30.399Z,18.39
2019-05-01T15:49:34.051Z,18.25
2019-05-01T15:54:36.063Z,18.19
2019-05-01T15:59:39.353Z,18.41
2019-05-01T16:04:41.322Z,18.18
2019-05-01T16:09:43.567Z,17.89
2019-05-01T16:14:47.725Z,17.76
2019-05-01T16:19:49.942Z,17.73
2019-05-01T16:24:52.318Z,17.77
2019-05-01T16:29:54.312Z,17.92
2019-05-01T16:34:56.576Z,17.81
2019-05-01T16:40:07.802Z,17.65
2019-05-01T16:45:12.311Z,17.68
2019-05-01T16:50:14.612Z,17.71
2019-05-01T16:55:17.191Z,17.68
2019-05-01T17:00:36.463Z,17.63
2019-05-01T17:05:51.198Z,17.30
2019-05-01T17:10:53.685Z,17.33
2019-05-01T17:15:55.915Z,17.32
2019-05-01T17:20:58.235Z,17.11
2019-05-01T17:26:00.412Z,16.99
2019-05-01T17:31:02.797Z,16.87
2019-05-01T17:36:05.096Z,16.84
2019-05-01T17:41:07.342Z,16.57
2019-05-01T17:46:10.759Z,16.38
2019-05-01T17:51:13.357Z,16.18
2019-05-01T17:56:19.593Z,15.91
2019-05-01T18:01:44.025Z,15.81
2019-05-01T18:06:48.228Z,15.60
2019-05-01T18:11:52.202Z,15.71
2019-05-01T18:16:54.219Z,15.65
2019-05-01T18:22:06.686Z,15.63
2019-05-01T18:27:28.528Z,15.43
2019-05-01T18:32:36.456Z,15.30
2019-05-01T18:38:06.357Z,15.00
2019-05-01T18:43:07.340Z,14.89
2019-05-01T18:48:09.635Z,14.85
2019-05-01T18:53:12.670Z,14.67
2019-05-01T18:58:14.900Z,14.37
2019-05-01T19:03:17.104Z,14.27
2019-05-01T19:08:19.198Z,14.22
2019-05-01T19:13:21.347Z,14.16
2019-05-01T19:18:23.537Z,14.17
2019-05-01T19:23:27.935Z,14.09
2019-05-01T19:28:29.669Z,13.93
2019-05-01T19:33:32.327Z,13.98
2019-05-01T19:38:36.737Z,14.14
2019-05-01T19:43:40.558Z,14.19
2019-05-01T19:48:45.500Z,14.19
2019-05-01T19:53:51.538Z,14.23
2019-05-01T19:58:50.445Z,14.15
2019-05-01T20:03:52.721Z,14.14
2019-05-01T20:08:54.758Z,14.10
2019-05-01T20:13:57.274Z,14.09
2019-05-01T20:19:03.098Z,14.01
2019-05-01T20:24:11.127Z,14.04
2019-05-01T20:29:13.481Z,13.99
2019-05-01T20:34:17.372Z,13.88
2019-05-01T20:39:19.627Z,13.78
2019-05-01T20:44:24.250Z,13.64
2019-05-01T20:49:26.040Z,13.71
2019-05-01T20:54:29.142Z,13.65
2019-05-01T20:59:35.222Z,13.60
2019-05-01T21:04:48.925Z,13.58
2019-05-01T21:09:56.861Z,13.46
2019-05-01T21:14:55.214Z,13.41
2019-05-01T21:19:57.302Z,13.45
2019-05-01T21:24:59.500Z,13.32
2019-05-01T21:30:03.860Z,13.28
2019-05-01T21:35:07.642Z,13.21
2019-05-01T21:40:12.873Z,13.06
2019-05-01T21:45:15.231Z,13.06
2019-05-01T21:50:17.815Z,13.05
2019-05-01T21:55:21.427Z,12.99
2019-05-01T22:00:26.373Z,12.98
2019-05-01T22:05:34.733Z,12.85
2019-05-01T22:10:34.606Z,12.68
2019-05-01T22:15:41.926Z,12.71
2019-05-01T22:21:09.792Z,12.54
2019-05-01T22:26:11.919Z,12.58
2019-05-01T22:31:52.938Z,12.53
2019-05-01T22:36:55.910Z,12.55
2019-05-01T22:41:58.100Z,12.53
2019-05-01T22:47:01.276Z,12.45
2019-05-01T22:52:03.509Z,12.44
2019-05-01T22:57:05.585Z,12.41
2019-05-01T23:02:18.537Z,12.25
2019-05-01T23:07:20.753Z,12.16
2019-05-01T23:12:23.068Z,12.10
2019-05-01T23:17:39.268Z,11.93
2019-05-01T23:22:38.915Z,11.93
2019-05-01T23:27:40.987Z,11.87
2019-05-01T23:32:43.232Z,11.72
2019-05-01T23:37:45.269Z,11.76
2019-05-01T23:42:52.317Z,11.66
2019-05-01T23:47:51.210Z,11.65
2019-05-01T23:52:54.454Z,11.50
2019-05-01T23:57:56.642Z,11.47
